sensor_id;sensor_type;location;lat;lon;timestamp;P1;durP1;ratioP1;P2;durP2;ratioP2
25349;SDS011;13302;48.796;11.978;2022-11-12T00:01:28;3.50;;;3.30;;
25349;SDS011;13302;48.796;11.978;2022-11-12T00:04:34;3.00;;;2.80;;
25349;SDS011;13302;48.796;11.978;2022-11-12T00:07:40;2.90;;;2.80;;
25349;SDS011;13302;48.796;11.978;2022-11-12T00:10:45;2.73;;;2.63;;
25349;SDS011;13302;48.796;11.978;2022-11-12T00:13:51;2.43;;;2.40;;
25349;SDS011;13302;48.796;11.978;2022-11-12T00:16:57;2.90;;;2.80;;
25349;SDS011;13302;48.796;11.978;2022-11-12T00:20:02;2.33;;;2.30;;
25349;SDS011;13302;48.796;11.978;2022-11-12T00:23:08;2.40;;;2.30;;
25349;SDS011;13302;48.796;11.978;2022-11-12T00:26:14;2.40;;;2.30;;
25349;SDS011;13302;48.796;11.978;2022-11-12T00:29:19;5.77;;;2.53;;
25349;SDS011;13302;48.796;11.978;2022-11-12T00:32:25;3.70;;;2.20;;
25349;SDS011;13302;48.796;11.978;2022-11-12T00:35:31;4.73;;;2.23;;
25349;SDS011;13302;48.796;11.978;2022-11-12T00:38:37;2.33;;;2.23;;
25349;SDS011;13302;48.796;11.978;2022-11-12T00:41:42;2.30;;;2.30;;
25349;SDS011;13302;48.796;11.978;2022-11-12T00:44:48;2.23;;;2.13;;
25349;SDS011;13302;48.796;11.978;2022-11-12T00:47:54;2.27;;;2.17;;
25349;SDS011;13302;48.796;11.978;2022-11-12T00:51:01;2.40;;;2.30;;
25349;SDS011;13302;48.796;11.978;2022-11-12T00:54:09;2.60;;;2.40;;
25349;SDS011;13302;48.796;11.978;2022-11-12T00:57:15;2.00;;;1.90;;
25349;SDS011;13302;48.796;11.978;2022-11-12T01:00:20;2.10;;;2.10;;
25349;SDS011;13302;48.796;11.978;2022-11-12T01:03:26;2.00;;;2.00;;
25349;SDS011;13302;48.796;11.978;2022-11-12T01:06:32;2.10;;;2.00;;
25349;SDS011;13302;48.796;11.978;2022-11-12T01:09:38;1.70;;;1.70;;
25349;SDS011;13302;48.796;11.978;2022-11-12T01:12:43;1.70;;;1.70;;
25349;SDS011;13302;48.796;11.978;2022-11-12T01:15:49;2.10;;;2.10;;
25349;SDS011;13302;48.796;11.978;2022-11-12T01:18:56;1.97;;;1.97;;
25349;SDS011;13302;48.796;11.978;2022-11-12T01:22:03;1.90;;;1.90;;
25349;SDS011;13302;48.796;11.978;2022-11-12T01:25:09;1.90;;;1.90;;
25349;SDS011;13302;48.796;11.978;2022-11-12T01:28:14;1.90;;;1.90;;
25349;SDS011;13302;48.796;11.978;2022-11-12T01:34:30;2.07;;;2.00;;
25349;SDS011;13302;48.796;11.978;2022-11-12T01:37:35;1.87;;;1.77;;
25349;SDS011;13302;48.796;11.978;2022-11-12T01:40:41;1.80;;;1.80;;
25349;SDS011;13302;48.796;11.978;2022-11-12T01:43:47;1.90;;;1.90;;
25349;SDS011;13302;48.796;11.978;2022-11-12T01:46:57;2.10;;;1.90;;
25349;SDS011;13302;48.796;11.978;2022-11-12T01:50:31;1.90;;;1.90;;
25349;SDS011;13302;48.796;11.978;2022-11-12T01:53:42;1.70;;;1.70;;
25349;SDS011;13302;48.796;11.978;2022-11-12T01:56:50;3.37;;;1.80;;
25349;SDS011;13302;48.796;11.978;2022-11-12T01:59:57;1.90;;;1.80;;
25349;SDS011;13302;48.796;11.978;2022-11-12T02:03:08;1.60;;;1.60;;
25349;SDS011;13302;48.796;11.978;2022-11-12T02:06:17;1.47;;;1.47;;
25349;SDS011;13302;48.796;11.978;2022-11-12T02:09:24;1.63;;;1.63;;
25349;SDS011;13302;48.796;11.978;2022-11-12T02:12:31;1.57;;;1.57;;
25349;SDS011;13302;48.796;11.978;2022-11-12T02:15:56;1.20;;;1.20;;
25349;SDS011;13302;48.796;11.978;2022-11-12T02:19:03;1.43;;;1.43;;
25349;SDS011;13302;48.796;11.978;2022-11-12T02:22:11;1.30;;;1.30;;
25349;SDS011;13302;48.796;11.978;2022-11-12T02:25:17;1.10;;;1.10;;
25349;SDS011;13302;48.796;11.978;2022-11-12T02:28:27;1.87;;;1.20;;
25349;SDS011;13302;48.796;11.978;2022-11-12T02:31:35;0.90;;;0.90;;
25349;SDS011;13302;48.796;11.978;2022-11-12T02:34:41;1.07;;;1.07;;
25349;SDS011;13302;48.796;11.978;2022-11-12T02:37:46;0.90;;;0.90;;
25349;SDS011;13302;48.796;11.978;2022-11-12T02:40:52;0.90;;;0.90;;
25349;SDS011;13302;48.796;11.978;2022-11-12T02:43:57;1.10;;;1.10;;
25349;SDS011;13302;48.796;11.978;2022-11-12T02:47:02;1.10;;;1.10;;
25349;SDS011;13302;48.796;11.978;2022-11-12T02:50:08;1.30;;;1.30;;
25349;SDS011;13302;48.796;11.978;2022-11-12T02:53:14;1.30;;;1.17;;
25349;SDS011;13302;48.796;11.978;2022-11-12T02:56:19;1.40;;;1.40;;
25349;SDS011;13302;48.796;11.978;2022-11-12T02:59:25;1.20;;;1.20;;
25349;SDS011;13302;48.796;11.978;2022-11-12T03:02:31;1.30;;;1.30;;
25349;SDS011;13302;48.796;11.978;2022-11-12T03:05:37;1.60;;;1.50;;
25349;SDS011;13302;48.796;11.978;2022-11-12T03:08:43;1.60;;;1.50;;
25349;SDS011;13302;48.796;11.978;2022-11-12T03:11:48;1.77;;;1.67;;
25349;SDS011;13302;48.796;11.978;2022-11-12T03:14:54;1.57;;;1.57;;
25349;SDS011;13302;48.796;11.978;2022-11-12T03:18:00;1.87;;;1.77;;
25349;SDS011;13302;48.796;11.978;2022-11-12T03:21:05;2.47;;;2.10;;
25349;SDS011;13302;48.796;11.978;2022-11-12T03:24:11;2.10;;;2.00;;
25349;SDS011;13302;48.796;11.978;2022-11-12T03:27:17;2.17;;;1.97;;
25349;SDS011;13302;48.796;11.978;2022-11-12T03:30:23;2.10;;;2.00;;
25349;SDS011;13302;48.796;11.978;2022-11-12T03:33:30;2.60;;;2.50;;
25349;SDS011;13302;48.796;11.978;2022-11-12T03:36:36;2.47;;;2.37;;
25349;SDS011;13302;48.796;11.978;2022-11-12T03:39:41;10.00;;;2.73;;
25349;SDS011;13302;48.796;11.978;2022-11-12T03:42:48;2.27;;;2.17;;
25349;SDS011;13302;48.796;11.978;2022-11-12T03:45:54;2.10;;;2.00;;
25349;SDS011;13302;48.796;11.978;2022-11-12T03:49:00;2.20;;;2.10;;
25349;SDS011;13302;48.796;11.978;2022-11-12T03:52:06;2.13;;;2.03;;
25349;SDS011;13302;48.796;11.978;2022-11-12T03:55:13;2.10;;;2.00;;
25349;SDS011;13302;48.796;11.978;2022-11-12T03:58:20;1.60;;;1.60;;
25349;SDS011;13302;48.796;11.978;2022-11-12T04:01:25;1.63;;;1.63;;
25349;SDS011;13302;48.796;11.978;2022-11-12T04:04:31;1.80;;;1.67;;
25349;SDS011;13302;48.796;11.978;2022-11-12T04:08:00;1.40;;;1.40;;
25349;SDS011;13302;48.796;11.978;2022-11-12T04:11:25;1.67;;;1.67;;
25349;SDS011;13302;48.796;11.978;2022-11-12T04:14:31;1.67;;;1.67;;
25349;SDS011;13302;48.796;11.978;2022-11-12T04:17:37;1.40;;;1.40;;
25349;SDS011;13302;48.796;11.978;2022-11-12T04:21:01;1.60;;;1.60;;
25349;SDS011;13302;48.796;11.978;2022-11-12T04:24:26;1.77;;;1.77;;
25349;SDS011;13302;48.796;11.978;2022-11-12T04:27:52;1.50;;;1.50;;
25349;SDS011;13302;48.796;11.978;2022-11-12T04:30:58;1.60;;;1.60;;
25349;SDS011;13302;48.796;11.978;2022-11-12T04:34:03;1.50;;;1.50;;
25349;SDS011;13302;48.796;11.978;2022-11-12T04:37:28;1.80;;;1.73;;
25349;SDS011;13302;48.796;11.978;2022-11-12T04:40:48;1.57;;;1.57;;
25349;SDS011;13302;48.796;11.978;2022-11-12T04:44:13;1.50;;;1.50;;
25349;SDS011;13302;48.796;11.978;2022-11-12T04:47:38;1.70;;;1.70;;
25349;SDS011;13302;48.796;11.978;2022-11-12T04:50:49;1.43;;;1.43;;
25349;SDS011;13302;48.796;11.978;2022-11-12T04:53:58;1.27;;;1.27;;
25349;SDS011;13302;48.796;11.978;2022-11-12T04:57:04;2.90;;;1.50;;
25349;SDS011;13302;48.796;11.978;2022-11-12T05:00:10;1.40;;;1.40;;
25349;SDS011;13302;48.796;11.978;2022-11-12T05:03:16;1.37;;;1.37;;
25349;SDS011;13302;48.796;11.978;2022-11-12T05:06:22;1.20;;;1.20;;
25349;SDS011;13302;48.796;11.978;2022-11-12T05:09:46;1.00;;;1.00;;
25349;SDS011;13302;48.796;11.978;2022-11-12T05:12:52;1.17;;;1.17;;
25349;SDS011;13302;48.796;11.978;2022-11-12T05:15:58;1.60;;;1.60;;
25349;SDS011;13302;48.796;11.978;2022-11-12T05:19:04;1.60;;;1.60;;
25349;SDS011;13302;48.796;11.978;2022-11-12T05:22:10;1.37;;;1.37;;
25349;SDS011;13302;48.796;11.978;2022-11-12T05:25:36;1.53;;;1.53;;
25349;SDS011;13302;48.796;11.978;2022-11-12T05:28:41;1.70;;;1.70;;
25349;SDS011;13302;48.796;11.978;2022-11-12T05:31:47;1.93;;;1.83;;
25349;SDS011;13302;48.796;11.978;2022-11-12T05:34:52;1.60;;;1.60;;
25349;SDS011;13302;48.796;11.978;2022-11-12T05:37:58;1.67;;;1.67;;
25349;SDS011;13302;48.796;11.978;2022-11-12T05:41:03;1.47;;;1.47;;
25349;SDS011;13302;48.796;11.978;2022-11-12T05:44:09;3.53;;;3.33;;
25349;SDS011;13302;48.796;11.978;2022-11-12T05:47:15;2.30;;;2.20;;
25349;SDS011;13302;48.796;11.978;2022-11-12T05:50:21;2.20;;;2.10;;
25349;SDS011;13302;48.796;11.978;2022-11-12T05:53:26;2.27;;;2.17;;
25349;SDS011;13302;48.796;11.978;2022-11-12T05:56:32;1.70;;;1.70;;
25349;SDS011;13302;48.796;11.978;2022-11-12T05:59:38;1.60;;;1.60;;
25349;SDS011;13302;48.796;11.978;2022-11-12T06:02:43;2.00;;;2.00;;
25349;SDS011;13302;48.796;11.978;2022-11-12T06:05:49;1.33;;;1.33;;
25349;SDS011;13302;48.796;11.978;2022-11-12T06:08:55;1.77;;;1.70;;
25349;SDS011;13302;48.796;11.978;2022-11-12T06:12:01;3.73;;;1.60;;
25349;SDS011;13302;48.796;11.978;2022-11-12T06:15:10;2.20;;;1.97;;
25349;SDS011;13302;48.796;11.978;2022-11-12T06:18:16;1.63;;;1.63;;
25349;SDS011;13302;48.796;11.978;2022-11-12T06:21:21;2.00;;;1.90;;
25349;SDS011;13302;48.796;11.978;2022-11-12T06:24:27;1.70;;;1.60;;
25349;SDS011;13302;48.796;11.978;2022-11-12T06:27:39;1.97;;;1.97;;
25349;SDS011;13302;48.796;11.978;2022-11-12T06:30:46;1.90;;;1.77;;
25349;SDS011;13302;48.796;11.978;2022-11-12T06:33:51;1.70;;;1.70;;
25349;SDS011;13302;48.796;11.978;2022-11-12T06:36:57;1.67;;;1.67;;
25349;SDS011;13302;48.796;11.978;2022-11-12T06:40:02;1.73;;;1.70;;
25349;SDS011;13302;48.796;11.978;2022-11-12T06:43:08;1.80;;;1.80;;
25349;SDS011;13302;48.796;11.978;2022-11-12T06:46:14;1.93;;;1.40;;
25349;SDS011;13302;48.796;11.978;2022-11-12T06:49:20;1.60;;;1.27;;
25349;SDS011;13302;48.796;11.978;2022-11-12T06:52:26;0.93;;;0.93;;
25349;SDS011;13302;48.796;11.978;2022-11-12T06:55:32;1.10;;;1.10;;
25349;SDS011;13302;48.796;11.978;2022-11-12T06:58:37;1.00;;;1.00;;
25349;SDS011;13302;48.796;11.978;2022-11-12T07:01:43;1.07;;;1.07;;
25349;SDS011;13302;48.796;11.978;2022-11-12T07:04:49;1.00;;;1.00;;
25349;SDS011;13302;48.796;11.978;2022-11-12T07:07:54;1.20;;;1.20;;
25349;SDS011;13302;48.796;11.978;2022-11-12T07:11:00;1.43;;;1.43;;
25349;SDS011;13302;48.796;11.978;2022-11-12T07:14:06;1.60;;;1.50;;
25349;SDS011;13302;48.796;11.978;2022-11-12T07:17:12;1.27;;;1.27;;
25349;SDS011;13302;48.796;11.978;2022-11-12T07:20:17;1.40;;;1.30;;
25349;SDS011;13302;48.796;11.978;2022-11-12T07:23:23;1.30;;;1.30;;
25349;SDS011;13302;48.796;11.978;2022-11-12T07:26:29;1.20;;;1.20;;
25349;SDS011;13302;48.796;11.978;2022-11-12T07:29:35;1.73;;;1.73;;
25349;SDS011;13302;48.796;11.978;2022-11-12T07:32:52;1.63;;;1.60;;
25349;SDS011;13302;48.796;11.978;2022-11-12T07:36:01;1.30;;;1.30;;
25349;SDS011;13302;48.796;11.978;2022-11-12T07:39:09;2.27;;;1.20;;
25349;SDS011;13302;48.796;11.978;2022-11-12T07:42:14;1.37;;;1.27;;
25349;SDS011;13302;48.796;11.978;2022-11-12T07:45:20;1.20;;;1.20;;
25349;SDS011;13302;48.796;11.978;2022-11-12T07:48:27;1.10;;;1.10;;
25349;SDS011;13302;48.796;11.978;2022-11-12T07:51:34;1.30;;;1.30;;
25349;SDS011;13302;48.796;11.978;2022-11-12T07:54:39;1.20;;;1.20;;
25349;SDS011;13302;48.796;11.978;2022-11-12T07:57:45;1.60;;;1.37;;
25349;SDS011;13302;48.796;11.978;2022-11-12T08:00:51;1.10;;;1.10;;
25349;SDS011;13302;48.796;11.978;2022-11-12T08:03:57;1.20;;;1.20;;
25349;SDS011;13302;48.796;11.978;2022-11-12T08:07:03;1.13;;;1.13;;
25349;SDS011;13302;48.796;11.978;2022-11-12T08:10:09;1.13;;;1.13;;
25349;SDS011;13302;48.796;11.978;2022-11-12T08:13:15;1.47;;;1.47;;
25349;SDS011;13302;48.796;11.978;2022-11-12T08:16:20;1.30;;;1.30;;
25349;SDS011;13302;48.796;11.978;2022-11-12T08:19:26;1.70;;;1.70;;
25349;SDS011;13302;48.796;11.978;2022-11-12T08:22:31;1.80;;;1.70;;
25349;SDS011;13302;48.796;11.978;2022-11-12T08:25:36;1.60;;;1.57;;
25349;SDS011;13302;48.796;11.978;2022-11-12T08:28:42;2.73;;;1.60;;
25349;SDS011;13302;48.796;11.978;2022-11-12T08:31:48;1.30;;;1.30;;
25349;SDS011;13302;48.796;11.978;2022-11-12T08:34:53;1.73;;;1.73;;
25349;SDS011;13302;48.796;11.978;2022-11-12T08:38:03;1.87;;;1.87;;
25349;SDS011;13302;48.796;11.978;2022-11-12T08:41:12;1.70;;;1.70;;
25349;SDS011;13302;48.796;11.978;2022-11-12T08:44:19;1.60;;;1.60;;
25349;SDS011;13302;48.796;11.978;2022-11-12T08:47:24;1.57;;;1.57;;
25349;SDS011;13302;48.796;11.978;2022-11-12T08:50:30;1.87;;;1.77;;
25349;SDS011;13302;48.796;11.978;2022-11-12T08:53:35;1.83;;;1.83;;
25349;SDS011;13302;48.796;11.978;2022-11-12T08:56:41;1.93;;;1.83;;
25349;SDS011;13302;48.796;11.978;2022-11-12T08:59:47;1.60;;;1.53;;
25349;SDS011;13302;48.796;11.978;2022-11-12T09:02:53;1.87;;;1.77;;
25349;SDS011;13302;48.796;11.978;2022-11-12T09:06:00;1.50;;;1.50;;
25349;SDS011;13302;48.796;11.978;2022-11-12T09:09:07;1.77;;;1.60;;
25349;SDS011;13302;48.796;11.978;2022-11-12T09:12:14;1.70;;;1.60;;
25349;SDS011;13302;48.796;11.978;2022-11-12T09:15:24;1.67;;;1.63;;
25349;SDS011;13302;48.796;11.978;2022-11-12T09:18:46;1.40;;;1.40;;
25349;SDS011;13302;48.796;11.978;2022-11-12T09:21:52;1.80;;;1.80;;
25349;SDS011;13302;48.796;11.978;2022-11-12T09:24:57;1.37;;;1.37;;
25349;SDS011;13302;48.796;11.978;2022-11-12T09:28:07;1.90;;;1.80;;
25349;SDS011;13302;48.796;11.978;2022-11-12T09:31:20;1.77;;;1.67;;
25349;SDS011;13302;48.796;11.978;2022-11-12T09:34:27;1.30;;;1.30;;
25349;SDS011;13302;48.796;11.978;2022-11-12T09:37:32;2.03;;;1.93;;
25349;SDS011;13302;48.796;11.978;2022-11-12T09:44:02;1.50;;;1.50;;
25349;SDS011;13302;48.796;11.978;2022-11-12T09:47:24;1.73;;;1.73;;
25349;SDS011;13302;48.796;11.978;2022-11-12T09:50:36;2.07;;;1.97;;
25349;SDS011;13302;48.796;11.978;2022-11-12T09:53:49;2.40;;;2.30;;
25349;SDS011;13302;48.796;11.978;2022-11-12T09:57:00;3.03;;;2.83;;
25349;SDS011;13302;48.796;11.978;2022-11-12T10:00:13;2.90;;;2.80;;
25349;SDS011;13302;48.796;11.978;2022-11-12T10:03:34;2.60;;;2.43;;
25349;SDS011;13302;48.796;11.978;2022-11-12T10:06:46;2.23;;;2.13;;
25349;SDS011;13302;48.796;11.978;2022-11-12T10:10:04;2.40;;;2.30;;
25349;SDS011;13302;48.796;11.978;2022-11-12T10:17:11;2.13;;;2.03;;
25349;SDS011;13302;48.796;11.978;2022-11-12T10:20:42;2.00;;;2.00;;
25349;SDS011;13302;48.796;11.978;2022-11-12T10:24:21;2.20;;;2.03;;
25349;SDS011;13302;48.796;11.978;2022-11-12T10:27:32;1.63;;;1.60;;
25349;SDS011;13302;48.796;11.978;2022-11-12T10:30:42;1.97;;;1.97;;
25349;SDS011;13302;48.796;11.978;2022-11-12T10:33:49;2.23;;;2.13;;
25349;SDS011;13302;48.796;11.978;2022-11-12T10:40:34;1.83;;;1.83;;
25349;SDS011;13302;48.796;11.978;2022-11-12T10:43:47;1.70;;;1.70;;
25349;SDS011;13302;48.796;11.978;2022-11-12T10:50:40;1.83;;;1.83;;
25349;SDS011;13302;48.796;11.978;2022-11-12T10:53:47;2.20;;;2.10;;
25349;SDS011;13302;48.796;11.978;2022-11-12T10:56:52;1.97;;;1.87;;
25349;SDS011;13302;48.796;11.978;2022-11-12T11:03:28;2.07;;;1.97;;
25349;SDS011;13302;48.796;11.978;2022-11-12T11:06:41;1.90;;;1.90;;
25349;SDS011;13302;48.796;11.978;2022-11-12T11:09:56;1.83;;;1.83;;
25349;SDS011;13302;48.796;11.978;2022-11-12T11:13:15;2.23;;;2.13;;
25349;SDS011;13302;48.796;11.978;2022-11-12T11:16:26;2.10;;;2.00;;
25349;SDS011;13302;48.796;11.978;2022-11-12T11:19:36;1.90;;;1.90;;
25349;SDS011;13302;48.796;11.978;2022-11-12T11:22:45;1.63;;;1.63;;
25349;SDS011;13302;48.796;11.978;2022-11-12T11:25:54;2.10;;;2.10;;
25349;SDS011;13302;48.796;11.978;2022-11-12T11:29:24;2.33;;;2.23;;
25349;SDS011;13302;48.796;11.978;2022-11-12T11:35:45;2.27;;;2.17;;
25349;SDS011;13302;48.796;11.978;2022-11-12T11:39:24;2.00;;;2.00;;
25349;SDS011;13302;48.796;11.978;2022-11-12T11:43:26;2.30;;;2.30;;
25349;SDS011;13302;48.796;11.978;2022-11-12T11:57:01;3.03;;;2.93;;
25349;SDS011;13302;48.796;11.978;2022-11-12T12:00:18;3.30;;;3.10;;
25349;SDS011;13302;48.796;11.978;2022-11-12T12:06:56;3.50;;;3.30;;
25349;SDS011;13302;48.796;11.978;2022-11-12T12:20:44;2.80;;;2.70;;
25349;SDS011;13302;48.796;11.978;2022-11-12T12:23:59;2.53;;;2.43;;
25349;SDS011;13302;48.796;11.978;2022-11-12T12:27:26;2.23;;;2.23;;
25349;SDS011;13302;48.796;11.978;2022-11-12T12:30:38;2.27;;;2.27;;
25349;SDS011;13302;48.796;11.978;2022-11-12T12:33:50;2.87;;;2.77;;
25349;SDS011;13302;48.796;11.978;2022-11-12T12:46:59;2.90;;;2.80;;
25349;SDS011;13302;48.796;11.978;2022-11-12T12:50:10;5.53;;;2.70;;
25349;SDS011;13302;48.796;11.978;2022-11-12T12:59:35;3.00;;;2.80;;
25349;SDS011;13302;48.796;11.978;2022-11-12T13:02:41;2.77;;;2.67;;
25349;SDS011;13302;48.796;11.978;2022-11-12T13:05:47;3.37;;;3.10;;
25349;SDS011;13302;48.796;11.978;2022-11-12T13:12:16;3.20;;;2.90;;
25349;SDS011;13302;48.796;11.978;2022-11-12T13:15:30;3.37;;;3.17;;
25349;SDS011;13302;48.796;11.978;2022-11-12T13:25:25;19.80;;;17.77;;
25349;SDS011;13302;48.796;11.978;2022-11-12T13:28:33;9.27;;;8.30;;
25349;SDS011;13302;48.796;11.978;2022-11-12T13:31:39;5.47;;;5.10;;
25349;SDS011;13302;48.796;11.978;2022-11-12T13:34:46;4.33;;;4.03;;
25349;SDS011;13302;48.796;11.978;2022-11-12T13:41:14;3.80;;;3.60;;
25349;SDS011;13302;48.796;11.978;2022-11-12T13:44:22;4.63;;;4.30;;
25349;SDS011;13302;48.796;11.978;2022-11-12T13:47:29;5.00;;;4.60;;
25349;SDS011;13302;48.796;11.978;2022-11-12T13:50:36;4.80;;;4.40;;
25349;SDS011;13302;48.796;11.978;2022-11-12T13:53:45;11.53;;;9.17;;
25349;SDS011;13302;48.796;11.978;2022-11-12T13:56:51;6.30;;;5.80;;
25349;SDS011;13302;48.796;11.978;2022-11-12T14:00:08;10.10;;;8.30;;
25349;SDS011;13302;48.796;11.978;2022-11-12T14:03:14;25.00;;;17.83;;
25349;SDS011;13302;48.796;11.978;2022-11-12T14:06:34;14.03;;;10.10;;
25349;SDS011;13302;48.796;11.978;2022-11-12T14:09:53;8.63;;;7.73;;
25349;SDS011;13302;48.796;11.978;2022-11-12T14:16:19;11.70;;;8.70;;
25349;SDS011;13302;48.796;11.978;2022-11-12T14:23:12;6.17;;;5.57;;
25349;SDS011;13302;48.796;11.978;2022-11-12T14:29:40;4.50;;;4.20;;
25349;SDS011;13302;48.796;11.978;2022-11-12T14:32:50;4.83;;;4.50;;
25349;SDS011;13302;48.796;11.978;2022-11-12T14:36:09;4.63;;;4.33;;
25349;SDS011;13302;48.796;11.978;2022-11-12T14:39:18;4.23;;;4.03;;
25349;SDS011;13302;48.796;11.978;2022-11-12T14:42:24;4.60;;;4.30;;
25349;SDS011;13302;48.796;11.978;2022-11-12T14:45:29;4.30;;;4.10;;
25349;SDS011;13302;48.796;11.978;2022-11-12T14:48:45;3.87;;;3.67;;
25349;SDS011;13302;48.796;11.978;2022-11-12T14:51:54;4.40;;;4.10;;
25349;SDS011;13302;48.796;11.978;2022-11-12T14:55:09;4.10;;;3.90;;
25349;SDS011;13302;48.796;11.978;2022-11-12T14:58:19;4.37;;;4.13;;
25349;SDS011;13302;48.796;11.978;2022-11-12T15:01:31;3.93;;;3.73;;
25349;SDS011;13302;48.796;11.978;2022-11-12T15:05:03;4.17;;;3.87;;
25349;SDS011;13302;48.796;11.978;2022-11-12T15:08:29;4.13;;;3.93;;
25349;SDS011;13302;48.796;11.978;2022-11-12T15:11:46;3.90;;;3.70;;
25349;SDS011;13302;48.796;11.978;2022-11-12T15:15:02;4.73;;;4.33;;
25349;SDS011;13302;48.796;11.978;2022-11-12T15:18:13;4.20;;;3.90;;
25349;SDS011;13302;48.796;11.978;2022-11-12T15:21:26;5.90;;;5.50;;
25349;SDS011;13302;48.796;11.978;2022-11-12T15:24:33;5.00;;;4.70;;
25349;SDS011;13302;48.796;11.978;2022-11-12T15:27:40;4.80;;;4.50;;
25349;SDS011;13302;48.796;11.978;2022-11-12T15:37:43;4.37;;;4.07;;
25349;SDS011;13302;48.796;11.978;2022-11-12T15:40:52;4.73;;;4.43;;
25349;SDS011;13302;48.796;11.978;2022-11-12T15:44:02;5.30;;;4.90;;
25349;SDS011;13302;48.796;11.978;2022-11-12T15:47:08;5.80;;;5.30;;
25349;SDS011;13302;48.796;11.978;2022-11-12T15:50:23;5.27;;;4.90;;
25349;SDS011;13302;48.796;11.978;2022-11-12T15:53:29;5.70;;;5.20;;
25349;SDS011;13302;48.796;11.978;2022-11-12T15:56:35;5.93;;;5.53;;
25349;SDS011;13302;48.796;11.978;2022-11-12T15:59:41;6.00;;;5.60;;
25349;SDS011;13302;48.796;11.978;2022-11-12T16:02:50;5.40;;;5.10;;
25349;SDS011;13302;48.796;11.978;2022-11-12T16:06:01;5.40;;;5.10;;
25349;SDS011;13302;48.796;11.978;2022-11-12T16:09:13;6.10;;;5.70;;
25349;SDS011;13302;48.796;11.978;2022-11-12T16:12:18;6.03;;;5.63;;
25349;SDS011;13302;48.796;11.978;2022-11-12T16:15:24;6.23;;;5.83;;
25349;SDS011;13302;48.796;11.978;2022-11-12T16:18:30;7.27;;;6.77;;
25349;SDS011;13302;48.796;11.978;2022-11-12T16:21:36;5.80;;;5.40;;
25349;SDS011;13302;48.796;11.978;2022-11-12T16:24:42;5.40;;;5.10;;
25349;SDS011;13302;48.796;11.978;2022-11-12T16:27:48;4.57;;;4.27;;
25349;SDS011;13302;48.796;11.978;2022-11-12T16:31:00;3.90;;;3.70;;
25349;SDS011;13302;48.796;11.978;2022-11-12T16:34:05;3.77;;;3.57;;
25349;SDS011;13302;48.796;11.978;2022-11-12T16:37:11;4.43;;;4.13;;
25349;SDS011;13302;48.796;11.978;2022-11-12T16:40:18;4.07;;;3.87;;
25349;SDS011;13302;48.796;11.978;2022-11-12T16:43:30;4.73;;;4.43;;
25349;SDS011;13302;48.796;11.978;2022-11-12T16:46:37;4.63;;;4.33;;
25349;SDS011;13302;48.796;11.978;2022-11-12T16:49:44;4.73;;;4.43;;
25349;SDS011;13302;48.796;11.978;2022-11-12T16:52:50;5.50;;;5.10;;
25349;SDS011;13302;48.796;11.978;2022-11-12T16:55:56;4.60;;;4.30;;
25349;SDS011;13302;48.796;11.978;2022-11-12T16:59:02;4.90;;;4.60;;
25349;SDS011;13302;48.796;11.978;2022-11-12T17:02:09;5.03;;;4.57;;
25349;SDS011;13302;48.796;11.978;2022-11-12T17:05:22;4.67;;;4.37;;
25349;SDS011;13302;48.796;11.978;2022-11-12T17:08:29;4.73;;;4.43;;
25349;SDS011;13302;48.796;11.978;2022-11-12T17:11:38;4.70;;;4.47;;
25349;SDS011;13302;48.796;11.978;2022-11-12T17:14:44;5.33;;;4.90;;
25349;SDS011;13302;48.796;11.978;2022-11-12T17:17:51;4.53;;;4.33;;
25349;SDS011;13302;48.796;11.978;2022-11-12T17:21:08;5.13;;;4.83;;
25349;SDS011;13302;48.796;11.978;2022-11-12T17:24:15;4.73;;;4.43;;
25349;SDS011;13302;48.796;11.978;2022-11-12T17:27:21;4.40;;;4.20;;
25349;SDS011;13302;48.796;11.978;2022-11-12T17:30:26;4.30;;;4.10;;
25349;SDS011;13302;48.796;11.978;2022-11-12T17:33:35;5.10;;;4.80;;
25349;SDS011;13302;48.796;11.978;2022-11-12T17:36:42;4.10;;;3.90;;
25349;SDS011;13302;48.796;11.978;2022-11-12T17:39:48;6.50;;;5.40;;
25349;SDS011;13302;48.796;11.978;2022-11-12T17:42:54;5.83;;;5.37;;
25349;SDS011;13302;48.796;11.978;2022-11-12T17:45:59;3.93;;;3.73;;
25349;SDS011;13302;48.796;11.978;2022-11-12T17:49:06;3.80;;;3.60;;
25349;SDS011;13302;48.796;11.978;2022-11-12T17:52:11;3.80;;;3.60;;
25349;SDS011;13302;48.796;11.978;2022-11-12T17:55:17;3.87;;;3.67;;
25349;SDS011;13302;48.796;11.978;2022-11-12T17:58:22;3.70;;;3.50;;
25349;SDS011;13302;48.796;11.978;2022-11-12T18:01:29;3.60;;;3.40;;
25349;SDS011;13302;48.796;11.978;2022-11-12T18:04:36;3.67;;;3.47;;
25349;SDS011;13302;48.796;11.978;2022-11-12T18:07:42;3.77;;;3.57;;
25349;SDS011;13302;48.796;11.978;2022-11-12T18:10:47;3.97;;;3.77;;
25349;SDS011;13302;48.796;11.978;2022-11-12T18:13:53;3.40;;;3.30;;
25349;SDS011;13302;48.796;11.978;2022-11-12T18:16:59;3.63;;;3.40;;
25349;SDS011;13302;48.796;11.978;2022-11-12T18:20:06;3.70;;;3.50;;
25349;SDS011;13302;48.796;11.978;2022-11-12T18:23:12;3.73;;;3.43;;
25349;SDS011;13302;48.796;11.978;2022-11-12T18:26:17;3.50;;;3.30;;
25349;SDS011;13302;48.796;11.978;2022-11-12T18:29:24;3.90;;;3.70;;
25349;SDS011;13302;48.796;11.978;2022-11-12T18:32:30;4.83;;;3.50;;
25349;SDS011;13302;48.796;11.978;2022-11-12T18:35:36;3.00;;;2.90;;
25349;SDS011;13302;48.796;11.978;2022-11-12T18:38:41;3.60;;;3.47;;
25349;SDS011;13302;48.796;11.978;2022-11-12T18:41:47;3.50;;;3.20;;
25349;SDS011;13302;48.796;11.978;2022-11-12T18:44:53;3.40;;;3.20;;
25349;SDS011;13302;48.796;11.978;2022-11-12T18:47:59;3.20;;;2.73;;
25349;SDS011;13302;48.796;11.978;2022-11-12T18:51:05;3.07;;;2.87;;
25349;SDS011;13302;48.796;11.978;2022-11-12T18:54:13;2.93;;;2.83;;
25349;SDS011;13302;48.796;11.978;2022-11-12T18:57:20;2.93;;;2.73;;
25349;SDS011;13302;48.796;11.978;2022-11-12T19:00:26;3.10;;;3.00;;
25349;SDS011;13302;48.796;11.978;2022-11-12T19:03:32;2.73;;;2.63;;
25349;SDS011;13302;48.796;11.978;2022-11-12T19:06:37;3.10;;;3.00;;
25349;SDS011;13302;48.796;11.978;2022-11-12T19:09:43;3.10;;;3.00;;
25349;SDS011;13302;48.796;11.978;2022-11-12T19:12:48;2.77;;;2.67;;
25349;SDS011;13302;48.796;11.978;2022-11-12T19:15:54;2.63;;;2.53;;
25349;SDS011;13302;48.796;11.978;2022-11-12T19:19:00;2.50;;;2.40;;
25349;SDS011;13302;48.796;11.978;2022-11-12T19:22:06;2.50;;;2.40;;
25349;SDS011;13302;48.796;11.978;2022-11-12T19:25:11;2.43;;;2.33;;
25349;SDS011;13302;48.796;11.978;2022-11-12T19:28:17;2.60;;;2.50;;
25349;SDS011;13302;48.796;11.978;2022-11-12T19:31:23;2.60;;;2.50;;
25349;SDS011;13302;48.796;11.978;2022-11-12T19:34:33;2.80;;;2.70;;
25349;SDS011;13302;48.796;11.978;2022-11-12T19:37:38;2.33;;;2.27;;
25349;SDS011;13302;48.796;11.978;2022-11-12T19:40:44;2.73;;;2.63;;
25349;SDS011;13302;48.796;11.978;2022-11-12T19:43:51;2.40;;;2.30;;
25349;SDS011;13302;48.796;11.978;2022-11-12T19:46:57;2.70;;;2.60;;
25349;SDS011;13302;48.796;11.978;2022-11-12T19:50:03;2.63;;;2.53;;
25349;SDS011;13302;48.796;11.978;2022-11-12T19:53:09;2.53;;;2.43;;
25349;SDS011;13302;48.796;11.978;2022-11-12T19:56:15;3.00;;;2.70;;
25349;SDS011;13302;48.796;11.978;2022-11-12T19:59:25;2.77;;;2.57;;
25349;SDS011;13302;48.796;11.978;2022-11-12T20:02:31;2.60;;;2.50;;
25349;SDS011;13302;48.796;11.978;2022-11-12T20:05:37;2.60;;;2.50;;
25349;SDS011;13302;48.796;11.978;2022-11-12T20:08:43;2.70;;;2.60;;
25349;SDS011;13302;48.796;11.978;2022-11-12T20:11:49;2.53;;;2.43;;
25349;SDS011;13302;48.796;11.978;2022-11-12T20:14:55;2.87;;;2.77;;